sensor_id;sensor_type;location;lat;lon;timestamp;pressure;altitude;pressure_sealevel;temperature;humidity
73501;BME280;61721;42.206;25.320;2023-04-04T00:02:26;98505.38;;;10.97;91.99
73501;BME280;61721;42.206;25.320;2023-04-04T00:04:53;98496.44;;;11.13;92.50
73501;BME280;61721;42.206;25.320;2023-04-04T00:07:22;98493.28;;;11.09;91.52
73501;BME280;61721;42.206;25.320;2023-04-04T00:09:50;98490.81;;;11.00;91.70
73501;BME280;61721;42.206;25.320;2023-04-04T00:12:17;98483.38;;;10.79;92.27
73501;BME280;61721;42.206;25.320;2023-04-04T00:14:44;98469.72;;;11.05;92.07
73501;BME280;61721;42.206;25.320;2023-04-04T00:17:11;98455.91;;;10.85;91.88
73501;BME280;61721;42.206;25.320;2023-04-04T00:19:38;98443.09;;;11.03;91.23
73501;BME280;61721;42.206;25.320;2023-04-04T00:22:06;98437.88;;;11.33;89.89
73501;BME280;61721;42.206;25.320;2023-04-04T00:24:34;98439.88;;;11.08;90.27
73501;BME280;61721;42.206;25.320;2023-04-04T00:27:02;98446.78;;;11.02;90.76
73501;BME280;61721;42.206;25.320;2023-04-04T00:29:29;98448.50;;;10.95;91.95
73501;BME280;61721;42.206;25.320;2023-04-04T00:31:56;98432.16;;;10.90;92.66
73501;BME280;61721;42.206;25.320;2023-04-04T00:34:23;98440.88;;;10.84;91.81
73501;BME280;61721;42.206;25.320;2023-04-04T00:36:51;98436.06;;;11.02;91.53
73501;BME280;61721;42.206;25.320;2023-04-04T00:39:19;98420.28;;;11.15;90.52
73501;BME280;61721;42.206;25.320;2023-04-04T00:41:48;98420.38;;;10.99;91.44
73501;BME280;61721;42.206;25.320;2023-04-04T00:44:15;98407.22;;;11.12;90.93
73501;BME280;61721;42.206;25.320;2023-04-04T00:46:43;98403.06;;;11.10;90.49
73501;BME280;61721;42.206;25.320;2023-04-04T00:49:10;98411.34;;;11.00;91.87
73501;BME280;61721;42.206;25.320;2023-04-04T00:51:37;98399.56;;;11.09;90.86
73501;BME280;61721;42.206;25.320;2023-04-04T00:54:04;98403.47;;;10.99;91.68
73501;BME280;61721;42.206;25.320;2023-04-04T00:56:35;98395.88;;;11.33;90.24
73501;BME280;61721;42.206;25.320;2023-04-04T00:59:05;98403.63;;;11.05;91.31
73501;BME280;61721;42.206;25.320;2023-04-04T01:01:33;98420.84;;;11.03;92.19
73501;BME280;61721;42.206;25.320;2023-04-04T01:04:01;98424.66;;;11.08;90.48
73501;BME280;61721;42.206;25.320;2023-04-04T01:06:30;98421.69;;;11.03;91.37
73501;BME280;61721;42.206;25.320;2023-04-04T01:09:02;98434.47;;;10.93;92.59
73501;BME280;61721;42.206;25.320;2023-04-04T01:11:29;98441.22;;;11.12;91.90
73501;BME280;61721;42.206;25.320;2023-04-04T01:13:57;98432.06;;;11.06;90.69
73501;BME280;61721;42.206;25.320;2023-04-04T01:16:26;98444.84;;;10.88;92.45
73501;BME280;61721;42.206;25.320;2023-04-04T01:18:54;98430.38;;;11.05;91.88
73501;BME280;61721;42.206;25.320;2023-04-04T01:21:23;98437.72;;;10.81;92.51
73501;BME280;61721;42.206;25.320;2023-04-04T01:23:57;98439.25;;;10.75;92.38
73501;BME280;61721;42.206;25.320;2023-04-04T01:26:26;98439.03;;;10.85;93.36
73501;BME280;61721;42.206;25.320;2023-04-04T01:28:54;98441.94;;;11.06;91.96
73501;BME280;61721;42.206;25.320;2023-04-04T01:31:26;98433.84;;;10.83;92.75
73501;BME280;61721;42.206;25.320;2023-04-04T01:34:01;98421.81;;;10.79;93.77
73501;BME280;61721;42.206;25.320;2023-04-04T01:36:35;98405.22;;;10.84;93.27
73501;BME280;61721;42.206;25.320;2023-04-04T01:39:12;98400.72;;;10.84;93.60
73501;BME280;61721;42.206;25.320;2023-04-04T01:41:44;98382.59;;;10.94;93.19
73501;BME280;61721;42.206;25.320;2023-04-04T01:44:13;98373.66;;;10.79;93.39
73501;BME280;61721;42.206;25.320;2023-04-04T01:46:42;98382.75;;;10.93;92.13
73501;BME280;61721;42.206;25.320;2023-04-04T01:49:09;98384.19;;;11.03;91.81
73501;BME280;61721;42.206;25.320;2023-04-04T01:51:36;98378.38;;;11.00;91.48
73501;BME280;61721;42.206;25.320;2023-04-04T01:54:05;98361.00;;;10.96;92.16
73501;BME280;61721;42.206;25.320;2023-04-04T01:56:32;98356.50;;;10.96;92.02
73501;BME280;61721;42.206;25.320;2023-04-04T01:59:01;98360.03;;;10.89;92.60
73501;BME280;61721;42.206;25.320;2023-04-04T02:01:28;98366.84;;;10.99;92.90
73501;BME280;61721;42.206;25.320;2023-04-04T02:03:55;98363.09;;;11.08;91.25
73501;BME280;61721;42.206;25.320;2023-04-04T02:06:23;98354.91;;;10.79;92.82
73501;BME280;61721;42.206;25.320;2023-04-04T02:08:55;98348.47;;;10.96;91.61
73501;BME280;61721;42.206;25.320;2023-04-04T02:11:26;98345.53;;;10.83;92.23
73501;BME280;61721;42.206;25.320;2023-04-04T02:13:56;98355.16;;;10.92;91.63
73501;BME280;61721;42.206;25.320;2023-04-04T02:16:27;98329.81;;;11.03;91.11
73501;BME280;61721;42.206;25.320;2023-04-04T02:18:56;98342.06;;;10.97;91.34
73501;BME280;61721;42.206;25.320;2023-04-04T02:21:25;98348.09;;;10.99;91.29
73501;BME280;61721;42.206;25.320;2023-04-04T02:23:53;98352.06;;;10.81;92.25
73501;BME280;61721;42.206;25.320;2023-04-04T02:26:21;98351.97;;;10.97;91.59
73501;BME280;61721;42.206;25.320;2023-04-04T02:28:48;98348.63;;;10.95;93.06
73501;BME280;61721;42.206;25.320;2023-04-04T02:31:16;98358.13;;;10.97;93.37
73501;BME280;61721;42.206;25.320;2023-04-04T02:33:45;98357.25;;;11.05;92.89
73501;BME280;61721;42.206;25.320;2023-04-04T02:36:12;98358.28;;;11.27;92.01
73501;BME280;61721;42.206;25.320;2023-04-04T02:38:39;98348.31;;;11.12;91.81
73501;BME280;61721;42.206;25.320;2023-04-04T02:41:06;98345.13;;;11.17;92.97
73501;BME280;61721;42.206;25.320;2023-04-04T02:43:34;98351.59;;;11.23;92.25
73501;BME280;61721;42.206;25.320;2023-04-04T02:46:01;98344.34;;;11.31;92.12
73501;BME280;61721;42.206;25.320;2023-04-04T02:48:28;98346.16;;;11.53;92.13
73501;BME280;61721;42.206;25.320;2023-04-04T02:50:57;98341.13;;;11.36;91.99
73501;BME280;61721;42.206;25.320;2023-04-04T02:53:24;98336.25;;;11.54;90.71
73501;BME280;61721;42.206;25.320;2023-04-04T02:55:52;98345.31;;;11.15;91.66
73501;BME280;61721;42.206;25.320;2023-04-04T02:58:19;98332.44;;;11.34;92.09
73501;BME280;61721;42.206;25.320;2023-04-04T03:00:53;98342.78;;;11.37;91.25
73501;BME280;61721;42.206;25.320;2023-04-04T03:03:20;98338.88;;;11.25;92.42
73501;BME280;61721;42.206;25.320;2023-04-04T03:05:48;98339.28;;;11.36;91.71
73501;BME280;61721;42.206;25.320;2023-04-04T03:08:17;98338.16;;;11.31;91.93
73501;BME280;61721;42.206;25.320;2023-04-04T03:10:45;98340.88;;;11.45;91.58
73501;BME280;61721;42.206;25.320;2023-04-04T03:13:12;98336.47;;;11.30;91.77
73501;BME280;61721;42.206;25.320;2023-04-04T03:15:40;98324.22;;;11.12;92.88
73501;BME280;61721;42.206;25.320;2023-04-04T03:18:08;98322.28;;;11.44;91.78
73501;BME280;61721;42.206;25.320;2023-04-04T03:20:35;98332.56;;;11.18;91.68
73501;BME280;61721;42.206;25.320;2023-04-04T03:23:02;98317.56;;;11.31;91.61
73501;BME280;61721;42.206;25.320;2023-04-04T03:25:31;98329.81;;;11.26;90.96
73501;BME280;61721;42.206;25.320;2023-04-04T03:28:06;98315.78;;;11.24;91.63
73501;BME280;61721;42.206;25.320;2023-04-04T03:30:34;98319.13;;;11.26;91.12
73501;BME280;61721;42.206;25.320;2023-04-04T03:33:03;98322.28;;;11.44;90.84
73501;BME280;61721;42.206;25.320;2023-04-04T03:35:36;98325.47;;;11.47;90.73
73501;BME280;61721;42.206;25.320;2023-04-04T03:38:03;98332.00;;;11.45;90.46
73501;BME280;61721;42.206;25.320;2023-04-04T03:40:32;98343.44;;;11.39;90.45
73501;BME280;61721;42.206;25.320;2023-04-04T03:43:00;98349.81;;;11.15;91.49
73501;BME280;61721;42.206;25.320;2023-04-04T03:45:27;98339.53;;;11.27;91.49
73501;BME280;61721;42.206;25.320;2023-04-04T03:47:54;98348.19;;;11.29;91.26
73501;BME280;61721;42.206;25.320;2023-04-04T03:50:21;98348.44;;;11.19;91.61
73501;BME280;61721;42.206;25.320;2023-04-04T03:52:49;98346.34;;;11.52;90.49
73501;BME280;61721;42.206;25.320;2023-04-04T03:55:16;98342.69;;;11.30;90.80
73501;BME280;61721;42.206;25.320;2023-04-04T03:57:45;98344.34;;;11.31;90.42
73501;BME280;61721;42.206;25.320;2023-04-04T04:00:13;98344.00;;;11.11;91.28
73501;BME280;61721;42.206;25.320;2023-04-04T04:02:40;98342.88;;;11.06;91.42
73501;BME280;61721;42.206;25.320;2023-04-04T04:05:08;98349.38;;;11.11;90.95
73501;BME280;61721;42.206;25.320;2023-04-04T04:07:35;98356.34;;;11.35;91.00
73501;BME280;61721;42.206;25.320;2023-04-04T04:10:03;98357.69;;;11.17;91.24
73501;BME280;61721;42.206;25.320;2023-04-04T04:12:31;98361.94;;;11.48;89.98
73501;BME280;61721;42.206;25.320;2023-04-04T04:15:00;98380.28;;;11.14;91.27
73501;BME280;61721;42.206;25.320;2023-04-04T04:17:27;98350.28;;;11.19;90.84
73501;BME280;61721;42.206;25.320;2023-04-04T04:19:55;98371.47;;;11.28;90.99
73501;BME280;61721;42.206;25.320;2023-04-04T04:22:22;98380.53;;;11.04;91.25
73501;BME280;61721;42.206;25.320;2023-04-04T04:24:49;98377.78;;;11.35;90.11
73501;BME280;61721;42.206;25.320;2023-04-04T04:27:16;98379.72;;;11.27;90.87
73501;BME280;61721;42.206;25.320;2023-04-04T04:29:43;98372.19;;;11.45;89.79
73501;BME280;61721;42.206;25.320;2023-04-04T04:32:14;98373.31;;;11.05;90.78
73501;BME280;61721;42.206;25.320;2023-04-04T04:34:42;98360.00;;;11.20;90.70
73501;BME280;61721;42.206;25.320;2023-04-04T04:37:09;98358.41;;;11.10;90.76
73501;BME280;61721;42.206;25.320;2023-04-04T04:39:37;98362.69;;;11.20;90.72
73501;BME280;61721;42.206;25.320;2023-04-04T04:42:04;98374.06;;;11.22;90.52
73501;BME280;61721;42.206;25.320;2023-04-04T04:44:32;98359.00;;;11.21;90.33
73501;BME280;61721;42.206;25.320;2023-04-04T04:46:59;98349.66;;;11.17;90.37
73501;BME280;61721;42.206;25.320;2023-04-04T04:49:27;98349.38;;;11.11;90.56
73501;BME280;61721;42.206;25.320;2023-04-04T04:51:54;98362.38;;;11.14;90.56
73501;BME280;61721;42.206;25.320;2023-04-04T04:54:22;98354.28;;;11.23;90.00
73501;BME280;61721;42.206;25.320;2023-04-04T04:56:49;98356.72;;;11.32;89.59
73501;BME280;61721;42.206;25.320;2023-04-04T04:59:16;98360.06;;;11.11;90.18
73501;BME280;61721;42.206;25.320;2023-04-04T05:01:43;98366.25;;;11.12;90.53
73501;BME280;61721;42.206;25.320;2023-04-04T05:04:10;98367.66;;;11.45;88.79
73501;BME280;61721;42.206;25.320;2023-04-04T05:06:39;98363.69;;;11.41;88.52
73501;BME280;61721;42.206;25.320;2023-04-04T05:09:07;98366.63;;;11.32;89.28
73501;BME280;61721;42.206;25.320;2023-04-04T05:11:34;98376.00;;;11.28;89.08
73501;BME280;61721;42.206;25.320;2023-04-04T05:14:01;98371.72;;;11.19;90.28
73501;BME280;61721;42.206;25.320;2023-04-04T05:16:28;98378.75;;;11.20;89.86
73501;BME280;61721;42.206;25.320;2023-04-04T05:18:55;98371.72;;;11.41;90.63
73501;BME280;61721;42.206;25.320;2023-04-04T05:21:23;98369.72;;;11.58;89.07
73501;BME280;61721;42.206;25.320;2023-04-04T05:23:51;98368.50;;;11.00;90.40
73501;BME280;61721;42.206;25.320;2023-04-04T05:26:19;98349.59;;;11.25;90.10
73501;BME280;61721;42.206;25.320;2023-04-04T05:28:46;98365.47;;;11.26;89.44
73501;BME280;61721;42.206;25.320;2023-04-04T05:31:13;98375.22;;;11.19;90.61
73501;BME280;61721;42.206;25.320;2023-04-04T05:33:40;98364.34;;;11.21;90.38
73501;BME280;61721;42.206;25.320;2023-04-04T05:36:08;98371.97;;;11.32;90.31
73501;BME280;61721;42.206;25.320;2023-04-04T05:38:36;98366.69;;;11.38;89.57
73501;BME280;61721;42.206;25.320;2023-04-04T05:41:05;98354.81;;;11.18;89.43
73501;BME280;61721;42.206;25.320;2023-04-04T05:43:32;98359.63;;;11.23;89.29
73501;BME280;61721;42.206;25.320;2023-04-04T05:45:59;98355.31;;;11.22;89.14
73501;BME280;61721;42.206;25.320;2023-04-04T05:48:26;98361.84;;;11.42;89.18
73501;BME280;61721;42.206;25.320;2023-04-04T05:50:54;98374.75;;;11.15;90.32
73501;BME280;61721;42.206;25.320;2023-04-04T05:53:21;98371.81;;;11.02;90.83
73501;BME280;61721;42.206;25.320;2023-04-04T05:55:50;98372.19;;;11.45;89.10
73501;BME280;61721;42.206;25.320;2023-04-04T05:58:19;98372.91;;;11.16;90.92
73501;BME280;61721;42.206;25.320;2023-04-04T06:00:47;98389.22;;;11.29;90.33
73501;BME280;61721;42.206;25.320;2023-04-04T06:03:14;98379.34;;;11.30;90.09
73501;BME280;61721;42.206;25.320;2023-04-04T06:05:42;98384.47;;;11.17;90.54
73501;BME280;61721;42.206;25.320;2023-04-04T06:08:10;98379.75;;;11.41;89.46
73501;BME280;61721;42.206;25.320;2023-04-04T06:10:37;98377.53;;;11.45;89.16
73501;BME280;61721;42.206;25.320;2023-04-04T06:13:04;98379.94;;;11.40;89.54
73501;BME280;61721;42.206;25.320;2023-04-04T06:15:34;98380.75;;;11.18;90.03
73501;BME280;61721;42.206;25.320;2023-04-04T06:18:02;98374.31;;;11.49;88.53
73501;BME280;61721;42.206;25.320;2023-04-04T06:20:29;98364.44;;;11.50;88.52
73501;BME280;61721;42.206;25.320;2023-04-04T06:22:56;98384.88;;;11.51;88.66
73501;BME280;61721;42.206;25.320;2023-04-04T06:25:25;98370.94;;;11.33;89.92
73501;BME280;61721;42.206;25.320;2023-04-04T06:27:52;98390.75;;;11.01;91.29
73501;BME280;61721;42.206;25.320;2023-04-04T06:30:20;98390.41;;;11.04;91.99
73501;BME280;61721;42.206;25.320;2023-04-04T06:32:49;98390.06;;;11.30;91.38
73501;BME280;61721;42.206;25.320;2023-04-04T06:35:17;98385.50;;;11.76;88.90
73501;BME280;61721;42.206;25.320;2023-04-04T06:37:44;98392.06;;;11.50;88.69
73501;BME280;61721;42.206;25.320;2023-04-04T06:40:12;98396.16;;;11.61;88.69
73501;BME280;61721;42.206;25.320;2023-04-04T06:42:46;98386.78;;;11.20;90.03
73501;BME280;61721;42.206;25.320;2023-04-04T06:45:15;98387.16;;;11.54;89.57
73501;BME280;61721;42.206;25.320;2023-04-04T06:47:42;98391.84;;;11.14;90.78
73501;BME280;61721;42.206;25.320;2023-04-04T06:50:12;98392.34;;;11.55;90.13
73501;BME280;61721;42.206;25.320;2023-04-04T06:52:40;98386.44;;;11.60;88.77
73501;BME280;61721;42.206;25.320;2023-04-04T06:55:08;98387.38;;;11.30;89.76
73501;BME280;61721;42.206;25.320;2023-04-04T06:57:36;98391.19;;;11.35;89.57
73501;BME280;61721;42.206;25.320;2023-04-04T07:00:05;98389.25;;;11.44;89.73
73501;BME280;61721;42.206;25.320;2023-04-04T07:02:32;98386.00;;;11.34;90.55
73501;BME280;61721;42.206;25.320;2023-04-04T07:04:59;98385.88;;;11.50;88.88
73501;BME280;61721;42.206;25.320;2023-04-04T07:07:28;98386.09;;;12.00;86.87
73501;BME280;61721;42.206;25.320;2023-04-04T07:09:55;98389.81;;;11.62;87.47
73501;BME280;61721;42.206;25.320;2023-04-04T07:12:23;98384.06;;;11.65;87.82
73501;BME280;61721;42.206;25.320;2023-04-04T07:14:50;98383.84;;;11.52;88.01
73501;BME280;61721;42.206;25.320;2023-04-04T07:17:17;98383.38;;;11.48;88.54
73501;BME280;61721;42.206;25.320;2023-04-04T07:19:44;98381.81;;;11.54;89.52
73501;BME280;61721;42.206;25.320;2023-04-04T07:22:11;98376.31;;;12.08;86.50
73501;BME280;61721;42.206;25.320;2023-04-04T07:24:41;98377.03;;;11.87;86.47
73501;BME280;61721;42.206;25.320;2023-04-04T07:27:08;98380.91;;;11.99;86.83
73501;BME280;61721;42.206;25.320;2023-04-04T07:29:36;98394.38;;;11.76;87.35
73501;BME280;61721;42.206;25.320;2023-04-04T07:32:03;98389.88;;;11.91;86.60
73501;BME280;61721;42.206;25.320;2023-04-04T07:34:30;98396.34;;;11.82;87.35
73501;BME280;61721;42.206;25.320;2023-04-04T07:36:57;98388.63;;;12.17;86.17
73501;BME280;61721;42.206;25.320;2023-04-04T07:39:25;98384.16;;;11.94;86.72
73501;BME280;61721;42.206;25.320;2023-04-04T07:41:53;98383.56;;;11.84;86.86
73501;BME280;61721;42.206;25.320;2023-04-04T07:44:21;98381.75;;;11.99;86.22
73501;BME280;61721;42.206;25.320;2023-04-04T07:46:48;98391.63;;;11.84;86.74
73501;BME280;61721;42.206;25.320;2023-04-04T07:49:15;98379.72;;;12.02;85.79
73501;BME280;61721;42.206;25.320;2023-04-04T07:51:43;98375.38;;;12.30;85.23
73501;BME280;61721;42.206;25.320;2023-04-04T07:54:11;98390.34;;;12.24;85.28
73501;BME280;61721;42.206;25.320;2023-04-04T07:56:41;98387.88;;;12.23;86.04
73501;BME280;61721;42.206;25.320;2023-04-04T07:59:09;98389.81;;;12.14;86.09
73501;BME280;61721;42.206;25.320;2023-04-04T08:01:37;98389.16;;;12.27;85.54
73501;BME280;61721;42.206;25.320;2023-04-04T08:04:04;98391.28;;;12.31;85.58
73501;BME280;61721;42.206;25.320;2023-04-04T08:06:32;98392.66;;;12.71;83.86
73501;BME280;61721;42.206;25.320;2023-04-04T08:08:59;98397.78;;;12.37;84.77
73501;BME280;61721;42.206;25.320;2023-04-04T08:11:26;98393.34;;;12.44;84.64
73501;BME280;61721;42.206;25.320;2023-04-04T08:13:54;98391.13;;;12.04;85.34
73501;BME280;61721;42.206;25.320;2023-04-04T08:16:22;98395.09;;;12.08;85.51
73501;BME280;61721;42.206;25.320;2023-04-04T08:18:49;98396.31;;;12.49;84.47
73501;BME280;61721;42.206;25.320;2023-04-04T08:21:17;98406.25;;;13.06;82.49
73501;BME280;61721;42.206;25.320;2023-04-04T08:23:44;98411.91;;;12.60;83.16
73501;BME280;61721;42.206;25.320;2023-04-04T08:26:12;98410.16;;;12.67;83.55
73501;BME280;61721;42.206;25.320;2023-04-04T08:28:39;98409.34;;;12.52;83.72
73501;BME280;61721;42.206;25.320;2023-04-04T08:31:06;98410.16;;;12.53;84.49
73501;BME280;61721;42.206;25.320;2023-04-04T08:33:36;98419.13;;;12.74;82.81
73501;BME280;61721;42.206;25.320;2023-04-04T08:36:05;98419.50;;;12.71;82.59
73501;BME280;61721;42.206;25.320;2023-04-04T08:38:32;98417.81;;;12.70;82.70
73501;BME280;61721;42.206;25.320;2023-04-04T08:40:59;98425.63;;;12.51;83.65
73501;BME280;61721;42.206;25.320;2023-04-04T08:43:27;98422.97;;;12.86;82.72
73501;BME280;61721;42.206;25.320;2023-04-04T08:45:55;98434.47;;;12.80;83.44
73501;BME280;61721;42.206;25.320;2023-04-04T08:48:24;98429.69;;;12.61;83.66
73501;BME280;61721;42.206;25.320;2023-04-04T08:50:56;98431.00;;;13.16;82.26
73501;BME280;61721;42.206;25.320;2023-04-04T08:53:26;98426.19;;;13.11;81.07
73501;BME280;61721;42.206;25.320;2023-04-04T08:55:54;98419.31;;;13.23;81.28
73501;BME280;61721;42.206;25.320;2023-04-04T08:58:23;98430.09;;;13.45;80.97
73501;BME280;61721;42.206;25.320;2023-04-04T09:00:51;98423.44;;;13.41;80.62
73501;BME280;61721;42.206;25.320;2023-04-04T09:03:22;98430.38;;;13.56;80.38
73501;BME280;61721;42.206;25.320;2023-04-04T09:05:51;98418.03;;;13.83;79.32
73501;BME280;61721;42.206;25.320;2023-04-04T09:08:21;98420.09;;;13.81;81.14
73501;BME280;61721;42.206;25.320;2023-04-04T09:10:49;98427.50;;;14.07;79.83
73501;BME280;61721;42.206;25.320;2023-04-04T09:13:17;98423.47;;;13.90;79.19
73501;BME280;61721;42.206;25.320;2023-04-04T09:15:51;98431.34;;;14.19;77.88
73501;BME280;61721;42.206;25.320;2023-04-04T09:18:18;98428.03;;;14.86;77.13
73501;BME280;61721;42.206;25.320;2023-04-04T09:20:46;98441.28;;;14.81;76.32
73501;BME280;61721;42.206;25.320;2023-04-04T09:23:16;98435.75;;;13.78;78.77
73501;BME280;61721;42.206;25.320;2023-04-04T09:25:48;98436.63;;;14.62;77.03
73501;BME280;61721;42.206;25.320;2023-04-04T09:28:16;98425.44;;;14.65;77.15
73501;BME280;61721;42.206;25.320;2023-04-04T09:30:43;98421.69;;;15.74;74.39
73501;BME280;61721;42.206;25.320;2023-04-04T09:33:13;98420.34;;;15.44;73.60
73501;BME280;61721;42.206;25.320;2023-04-04T09:35:44;98418.34;;;16.24;71.86
73501;BME280;61721;42.206;25.320;2023-04-04T09:38:12;98413.72;;;16.51;71.08
73501;BME280;61721;42.206;25.320;2023-04-04T09:40:41;98417.31;;;15.99;71.65
73501;BME280;61721;42.206;25.320;2023-04-04T09:43:11;98410.06;;;15.93;72.13
73501;BME280;61721;42.206;25.320;2023-04-04T09:45:40;98413.78;;;15.59;73.04
73501;BME280;61721;42.206;25.320;2023-04-04T09:48:07;98407.97;;;15.95;72.24
73501;BME280;61721;42.206;25.320;2023-04-04T09:50:36;98409.00;;;15.81;70.01
73501;BME280;61721;42.206;25.320;2023-04-04T09:53:16;98417.31;;;15.86;69.18
73501;BME280;61721;42.206;25.320;2023-04-04T09:55:49;98424.56;;;15.53;72.67
73501;BME280;61721;42.206;25.320;2023-04-04T09:58:19;98422.06;;;15.58;72.07
73501;BME280;61721;42.206;25.320;2023-04-04T10:00:53;98419.41;;;15.84;68.53
73501;BME280;61721;42.206;25.320;2023-04-04T10:03:22;98415.97;;;16.67;66.67
73501;BME280;61721;42.206;25.320;2023-04-04T10:05:54;98402.16;;;16.24;68.55
73501;BME280;61721;42.206;25.320;2023-04-04T10:08:22;98405.88;;;16.10;69.24
73501;BME280;61721;42.206;25.320;2023-04-04T10:10:51;98388.25;;;15.88;70.12
73501;BME280;61721;42.206;25.320;2023-04-04T10:13:23;98392.63;;;15.82;69.80
73501;BME280;61721;42.206;25.320;2023-04-04T10:15:53;98388.06;;;16.09;70.38
73501;BME280;61721;42.206;25.320;2023-04-04T10:18:22;98380.41;;;16.84;68.07
73501;BME280;61721;42.206;25.320;2023-04-04T10:20:50;98371.75;;;16.62;68.22
73501;BME280;61721;42.206;25.320;2023-04-04T10:23:18;98381.78;;;15.50;70.55
73501;BME280;61721;42.206;25.320;2023-04-04T10:25:48;98372.28;;;15.60;70.82
73501;BME280;61721;42.206;25.320;2023-04-04T10:28:15;98369.38;;;15.68;70.04
73501;BME280;61721;42.206;25.320;2023-04-04T10:30:48;98370.69;;;16.56;67.37
73501;BME280;61721;42.206;25.320;2023-04-04T10:33:22;98361.38;;;16.59;67.64
73501;BME280;61721;42.206;25.320;2023-04-04T10:35:53;98354.78;;;16.15;67.78
73501;BME280;61721;42.206;25.320;2023-04-04T10:38:25;98365.19;;;16.05;67.85
73501;BME280;61721;42.206;25.320;2023-04-04T10:40:55;98360.97;;;16.42;68.29
73501;BME280;61721;42.206;25.320;2023-04-04T10:43:25;98357.09;;;16.05;66.24
73501;BME280;61721;42.206;25.320;2023-04-04T10:45:55;98344.91;;;17.12;62.92
73501;BME280;61721;42.206;25.320;2023-04-04T10:48:25;98362.56;;;18.02;62.64
73501;BME280;61721;42.206;25.320;2023-04-04T10:50:54;98356.00;;;17.91;62.47
73501;BME280;61721;42.206;25.320;2023-04-04T10:53:22;98364.13;;;17.66;63.13
73501;BME280;61721;42.206;25.320;2023-04-04T10:55:56;98360.72;;;17.77;63.52
73501;BME280;61721;42.206;25.320;2023-04-04T10:58:31;98349.28;;;17.44;61.71
73501;BME280;61721;42.206;25.320;2023-04-04T11:01:07;98356.94;;;17.78;60.45
73501;BME280;61721;42.206;25.320;2023-04-04T11:09:48;98356.09;;;17.78;62.37
73501;BME280;61721;42.206;25.320;2023-04-04T11:12:20;98368.81;;;17.46;61.97
73501;BME280;61721;42.206;25.320;2023-04-04T11:15:06;98362.31;;;17.22;63.17
73501;BME280;61721;42.206;25.320;2023-04-04T11:17:54;98366.09;;;17.15;63.00
73501;BME280;61721;42.206;25.320;2023-04-04T11:20:24;98366.19;;;16.31;65.58
73501;BME280;61721;42.206;25.320;2023-04-04T11:23:04;98361.84;;;16.30;65.77
73501;BME280;61721;42.206;25.320;2023-04-04T11:25:57;98350.97;;;17.38;62.37
73501;BME280;61721;42.206;25.320;2023-04-04T11:28:50;98350.97;;;17.94;60.58
73501;BME280;61721;42.206;25.320;2023-04-04T11:31:28;98349.81;;;17.59;61.00
73501;BME280;61721;42.206;25.320;2023-04-04T11:34:31;98354.13;;;17.91;61.37
73501;BME280;61721;42.206;25.320;2023-04-04T11:37:14;98362.59;;;17.45;61.10
73501;BME280;61721;42.206;25.320;2023-04-04T11:39:46;98345.41;;;17.58;61.53
73501;BME280;61721;42.206;25.320;2023-04-04T11:42:21;98340.09;;;17.76;61.61
73501;BME280;61721;42.206;25.320;2023-04-04T11:45:01;98346.34;;;18.02;61.29
73501;BME280;61721;42.206;25.320;2023-04-04T11:47:29;98348.31;;;18.49;59.36
73501;BME280;61721;42.206;25.320;2023-04-04T11:49:59;98347.53;;;18.06;61.76
73501;BME280;61721;42.206;25.320;2023-04-04T11:52:31;98351.59;;;17.97;61.79
73501;BME280;61721;42.206;25.320;2023-04-04T11:54:59;98354.34;;;17.90;61.05
73501;BME280;61721;42.206;25.320;2023-04-04T11:57:27;98355.78;;;17.68;61.43
73501;BME280;61721;42.206;25.320;2023-04-04T11:59:54;98349.31;;;18.36;60.39
73501;BME280;61721;42.206;25.320;2023-04-04T12:02:23;98354.34;;;17.90;61.15
73501;BME280;61721;42.206;25.320;2023-04-04T12:04:52;98361.84;;;17.88;60.61
73501;BME280;61721;42.206;25.320;2023-04-04T12:07:22;98354.81;;;17.87;58.70
73501;BME280;61721;42.206;25.320;2023-04-04T12:09:51;98361.03;;;18.12;59.81
73501;BME280;61721;42.206;25.320;2023-04-04T12:12:18;98362.09;;;17.86;61.49
73501;BME280;61721;42.206;25.320;2023-04-04T12:14:45;98356.00;;;17.66;60.41
73501;BME280;61721;42.206;25.320;2023-04-04T12:17:14;98353.91;;;18.36;58.91
73501;BME280;61721;42.206;25.320;2023-04-04T12:19:42;98356.00;;;17.35;60.37
73501;BME280;61721;42.206;25.320;2023-04-04T12:22:10;98348.47;;;17.93;60.36
73501;BME280;61721;42.206;25.320;2023-04-04T12:24:39;98344.09;;;18.35;58.83
73501;BME280;61721;42.206;25.320;2023-04-04T12:27:32;98344.22;;;18.04;59.09
73501;BME280;61721;42.206;25.320;2023-04-04T12:30:01;98342.13;;;17.56;60.44
73501;BME280;61721;42.206;25.320;2023-04-04T12:32:31;98349.88;;;17.15;62.03
73501;BME280;61721;42.206;25.320;2023-04-04T12:34:59;98347.66;;;16.60;63.02
73501;BME280;61721;42.206;25.320;2023-04-04T12:37:28;98340.97;;;16.70;61.32
73501;BME280;61721;42.206;25.320;2023-04-04T12:39:56;98350.22;;;16.87;61.44
73501;BME280;61721;42.206;25.320;2023-04-04T12:42:24;98341.44;;;16.60;62.68
73501;BME280;61721;42.206;25.320;2023-04-04T12:44:52;98347.47;;;16.49;62.32
73501;BME280;61721;42.206;25.320;2023-04-04T12:47:20;98353.44;;;16.51;63.37
73501;BME280;61721;42.206;25.320;2023-04-04T12:49:52;98353.91;;;16.48;62.81
73501;BME280;61721;42.206;25.320;2023-04-04T12:52:21;98349.31;;;16.48;61.30
73501;BME280;61721;42.206;25.320;2023-04-04T12:54:49;98343.06;;;16.54;61.53
73501;BME280;61721;42.206;25.320;2023-04-04T12:57:20;98335.50;;;16.76;61.67
73501;BME280;61721;42.206;25.320;2023-04-04T12:59:49;98345.41;;;16.31;64.31
73501;BME280;61721;42.206;25.320;2023-04-04T13:02:17;98352.72;;;16.24;65.40
73501;BME280;61721;42.206;25.320;2023-04-04T13:04:45;98358.31;;;16.22;65.32
73501;BME280;61721;42.206;25.320;2023-04-04T13:07:20;98361.50;;;16.00;65.03